CheckWX is a tool to help pilots better visualize weather data.  It is not intended as a substitute for an official pre-flight weather briefing.

03:13:56 UTC

KRQB METAR
Roben-Hood Airport
Big Rapids, Michigan, USA
Current

18 mins ago

KRQB 260256Z AUTO 24007KT 10SM CLR 20/16 A2989 RMK AO2 T02020160
Observed
May-26 @ 02:56 UTC
Wind
  • 240° at 7 KTS
Visibility
10 SM
Flight Rules
VFR
Cloud Levels
  • Clear skies
Temperature
20°C / 68°F
Dewpoint
16°C / 61°F
Humidity
78%
Altimeter
29.89" Hg
Pressure
1012.22 hPa
Previous

38 mins ago

KRQB 260236Z AUTO 23006KT 180V240 10SM CLR 21/16 A2988 RMK AO2 T02050161
Observed
May-26 @ 02:36 UTC
Wind
  • 230° at 6 KTS
Visibility
10 SM
Flight Rules
VFR
Cloud Levels
  • Clear skies
Temperature
21°C / 70°F
Dewpoint
16°C / 61°F
Humidity
73%
Altimeter
29.88" Hg
Pressure
1011.82 hPa
Previous

59 mins ago

KRQB 260215Z AUTO 22007KT 10SM CLR 21/17 A2988 RMK AO2 T02060165
Observed
May-26 @ 02:15 UTC
Wind
  • 220° at 7 KTS
Visibility
10 SM
Flight Rules
VFR
Cloud Levels
  • Clear skies
Temperature
21°C / 70°F
Dewpoint
17°C / 63°F
Humidity
78%
Altimeter
29.88" Hg
Pressure
1011.82 hPa